Vb Saint Marc — FV6094 — position and weather

sailwx.info

Track history (hours):
 
Tides and Currents Weather Stations Pressure Air Temp Water Temp Dewpoint Dewpoint Depression Visibility Wind Speed Wind Dir Waves Ship Positions

Vb Saint Marc

Last reported at 2018-Apr-20 03:00 UTC. Time now 2018-Apr-20 03:01 UTC.
Position N 47°16' W 002°12'.

Length 30 m; draft 5 m.

Type: Tug. MMSI: 227005270.

Date/timePositionNaut miles runAvg speedWind from/ knotsBaromVisibWave heightAir tempDewpointWater temp
2018-Apr-20 03:00N 47°16' W 002°12'0 0.0
2018-Apr-20 02:29N 47°16' W 002°12'0 0.0
2018-Apr-20 02:00N 47°16' W 002°12'0 0.0
2018-Apr-20 01:30N 47°16' W 002°12'0 0.0
2018-Apr-20 00:59N 47°16' W 002°12'0 0.0
2018-Apr-20 00:24N 47°16' W 002°12'0 0.0
2018-Apr-20 00:00N 47°16' W 002°12'0 0.0
2018-Apr-19 23:28N 47°16' W 002°12'0 0.0
2018-Apr-19 23:00N 47°16' W 002°12'0 0.0
2018-Apr-19 22:30N 47°16' W 002°12'0 0.0
2018-Apr-19 22:00N 47°16' W 002°12'0 0.0
2018-Apr-19 21:30N 47°16' W 002°12'0 0.0
2018-Apr-19 21:00N 47°16' W 002°12'0 0.0
2018-Apr-19 20:30N 47°16' W 002°12'0 0.0
2018-Apr-19 20:00N 47°16' W 002°12'0 0.0
2018-Apr-19 19:30N 47°16' W 002°12'0 0.0
2018-Apr-19 19:00N 47°16' W 002°12'0 0.0
2018-Apr-19 18:28N 47°16' W 002°12'0 0.0
2018-Apr-19 17:42N 47°16' W 002°12'0 0.0
2018-Apr-19 17:23N 47°16' W 002°12'0 0.0
2018-Apr-19 16:57N 47°16' W 002°12'0 0.0
2018-Apr-19 16:21N 47°16' W 002°12'0 0.0
2018-Apr-19 16:00N 47°16' W 002°12'0 0.0
2018-Apr-19 15:26N 47°16' W 002°12'0 0.0
2018-Apr-19 09:44N 47°16' W 002°12'0 0.0
2018-Apr-19 08:35N 47°16' W 002°12'0 0.1
2018-Apr-19 08:30N 47°16' W 002°12'0 0.0
2018-Apr-19 08:00N 47°16' W 002°12'0 0.0
2018-Apr-19 07:30N 47°16' W 002°12'0 0.0
2018-Apr-19 07:00N 47°16' W 002°12'2 3.2
2018-Apr-19 06:30N 47°17' W 002°10'3 6.5
2018-Apr-19 06:00N 47°18' W 002°06'0 0.0
2018-Apr-19 05:30N 47°18' W 002°06'0 0.1
2018-Apr-19 05:00N 47°18' W 002°06'1 2.5
2018-Apr-19 04:30N 47°18' W 002°08'4 7.2
2018-Apr-19 04:00N 47°16' W 002°12'0 0.1
2018-Apr-19 03:28N 47°16' W 002°12'0 0.0
2018-Apr-19 03:00N 47°16' W 002°12'0 0.0
2018-Apr-19 02:30N 47°16' W 002°12'0 0.0
2018-Apr-19 01:57N 47°16' W 002°12'0 0.0
2018-Apr-19 01:30N 47°16' W 002°12'0 0.0
2018-Apr-19 01:00N 47°16' W 002°12'0 0.0
2018-Apr-19 00:29N 47°16' W 002°12'0 0.0
2018-Apr-19 00:00N 47°16' W 002°12'0 0.0
2018-Apr-18 23:30N 47°16' W 002°12'0 0.0
2018-Apr-18 23:00N 47°16' W 002°12'0 0.0
2018-Apr-18 22:30N 47°16' W 002°12'0 0.0
2018-Apr-18 21:59N 47°16' W 002°12'0 0.0
2018-Apr-18 21:30N 47°16' W 002°12'0 0.0
2018-Apr-18 21:00N 47°16' W 002°12'0 0.0
2018-Apr-18 20:30N 47°16' W 002°12'0 0.0
2018-Apr-18 20:00N 47°16' W 002°12'2 3.6
2018-Apr-18 19:30N 47°17' W 002°10'1 1.5
2018-Apr-18 19:00N 47°18' W 002°09'3 6.0
2018-Apr-18 18:30N 47°18' W 002°05'0 0.0
2018-Apr-18 18:00N 47°18' W 002°05'0 0.5
2018-Apr-18 17:30N 47°18' W 002°05'0 0.1
2018-Apr-18 16:58N 47°18' W 002°05'0 0.2
2018-Apr-18 16:22N 47°18' W 002°05'1 2.5
2018-Apr-18 15:59N 47°18' W 002°07'3 6.7
2018-Apr-18 15:30N 47°16' W 002°11'4 1.7
2018-Apr-18 13:15N 47°18' W 002°06'0 0.8
2018-Apr-18 13:00N 47°18' W 002°06'0 0.2
2018-Apr-18 12:17N 47°18' W 002°06'0 0.0
2018-Apr-18 11:59N 47°18' W 002°06'0 0.0
2018-Apr-18 11:30N 47°18' W 002°06'0 0.0
2018-Apr-18 11:00N 47°18' W 002°06'0 0.8
2018-Apr-18 10:30N 47°18' W 002°07'2 3.7
2018-Apr-18 10:00N 47°18' W 002°09'0 0.6
2018-Apr-18 09:31N 47°18' W 002°09'2 4.1
2018-Apr-18 09:00N 47°16' W 002°11'1 0.9
2018-Apr-18 08:21N 47°16' W 002°12'0 0.0
2018-Apr-18 07:58N 47°16' W 002°12'0 0.0
2018-Apr-18 07:29N 47°16' W 002°12'0 0.0
2018-Apr-18 07:00N 47°16' W 002°12'0 0.0
2018-Apr-18 06:30N 47°16' W 002°12'3 6.3
2018-Apr-18 06:01N 47°18' W 002°08'0 0.4
2018-Apr-18 05:31N 47°18' W 002°08'0 0.0
2018-Apr-18 05:00N 47°18' W 002°08'3 6.2
2018-Apr-18 04:30N 47°16' W 002°12'0 0.5
2018-Apr-18 04:00N 47°16' W 002°12'0 0.0
2018-Apr-18 03:24N 47°16' W 002°12'0 0.0
2018-Apr-18 02:46N 47°16' W 002°12'0 0.0
2018-Apr-18 02:30N 47°16' W 002°12'0 0.0
2018-Apr-18 01:59N 47°16' W 002°12'0 0.0
2018-Apr-18 01:30N 47°16' W 002°12'0 0.0
2018-Apr-18 00:55N 47°16' W 002°12'0 0.0
2018-Apr-17 23:16N 47°16' W 002°12'0 0.0
2018-Apr-17 22:58N 47°16' W 002°12'0 0.0
2018-Apr-17 22:30N 47°16' W 002°12'0 0.0
2018-Apr-17 22:00N 47°16' W 002°12'0 0.0
2018-Apr-17 21:30N 47°16' W 002°12'0 0.0
2018-Apr-17 21:00N 47°16' W 002°12'0 0.0
2018-Apr-17 20:30N 47°16' W 002°12'0 0.0
2018-Apr-17 20:00N 47°16' W 002°12'0 0.0
2018-Apr-17 19:30N 47°16' W 002°12'0 0.0
2018-Apr-17 19:00N 47°16' W 002°12'0 0.0
2018-Apr-17 18:29N 47°16' W 002°12'0 0.0
2018-Apr-17 18:00N 47°16' W 002°12'0 0.0
2018-Apr-17 16:38N 47°16' W 002°12'0 0.9
2018-Apr-17 16:28N 47°16' W 002°12'4 7.7
2018-Apr-17 15:59N 47°18' W 002°08'0 0.1
2018-Apr-17 15:30N 47°18' W 002°08'4 7.0
2018-Apr-17 14:58N 47°16' W 002°12'0 0.3
2018-Apr-17 14:29N 47°16' W 002°12'0 0.0
2018-Apr-17 07:28N 47°16' W 002°12'0 0.0
2018-Apr-17 06:57N 47°16' W 002°12'510.2
2018-Apr-17 06:30N 47°18' W 002°06'0 0.0
2018-Apr-17 06:00N 47°18' W 002°06'0 0.1
2018-Apr-17 05:31N 47°18' W 002°06'0 1.0
2018-Apr-17 05:00N 47°18' W 002°07'2 4.0
2018-Apr-17 04:30N 47°17' W 002°10'1 1.3
2018-Apr-17 04:00N 47°18' W 002°09'0 0.0
2018-Apr-17 03:30N 47°18' W 002°09'0 0.0
2018-Apr-17 03:01N 47°18' W 002°09'0 0.0
2018-Apr-17 02:30N 47°18' W 002°09'0 0.0
2018-Apr-17 02:00N 47°18' W 002°09'0 0.0
2018-Apr-17 01:31N 47°18' W 002°09'0 0.0
2018-Apr-17 01:00N 47°18' W 002°09'0 0.0
2018-Apr-17 00:30N 47°18' W 002°09'0 0.0
2018-Apr-17 00:00N 47°18' W 002°09'0 0.0
2018-Apr-16 23:31N 47°18' W 002°09'0 0.0
2018-Apr-16 23:00N 47°18' W 002°09'0 0.0
2018-Apr-16 22:30N 47°18' W 002°09'0 0.0
2018-Apr-16 22:00N 47°18' W 002°09'0 0.0
2018-Apr-16 21:31N 47°18' W 002°09'0 0.0
2018-Apr-16 21:01N 47°18' W 002°09'0 0.0
2018-Apr-16 20:31N 47°18' W 002°09'0 0.0
2018-Apr-16 20:01N 47°18' W 002°09'0 0.0
2018-Apr-16 19:31N 47°18' W 002°09'0 0.0
2018-Apr-16 19:01N 47°18' W 002°09'0 0.0
2018-Apr-16 18:30N 47°18' W 002°09'0 0.0
2018-Apr-16 18:01N 47°18' W 002°09'0 0.0
2018-Apr-16 17:30N 47°18' W 002°09'0 0.8
2018-Apr-16 17:00N 47°18' W 002°08'0 0.0
2018-Apr-16 16:30N 47°18' W 002°08'0 0.3
2018-Apr-16 16:00N 47°18' W 002°08'2 3.5
2018-Apr-16 15:31N 47°17' W 002°10'1 2.5
2018-Apr-16 15:00N 47°18' W 002°09'0 0.0
2018-Apr-16 14:30N 47°18' W 002°09'0 0.0
2018-Apr-16 14:00N 47°18' W 002°09'0 0.0
2018-Apr-16 13:30N 47°18' W 002°09'0 0.0
2018-Apr-16 13:00N 47°18' W 002°09'0 0.0
2018-Apr-16 12:30N 47°18' W 002°09'0 0.0
2018-Apr-16 12:00N 47°18' W 002°09'0 0.0
2018-Apr-16 11:30N 47°18' W 002°09'0 0.0
2018-Apr-16 11:00N 47°18' W 002°09'2 4.6
2018-Apr-16 10:30N 47°18' W 002°05'0 0.0
2018-Apr-16 10:00N 47°18' W 002°05'0 0.7
2018-Apr-16 09:30N 47°18' W 002°05'0 0.0
2018-Apr-16 09:01N 47°18' W 002°05'0 0.0
2018-Apr-16 08:30N 47°18' W 002°05'0 0.0
2018-Apr-16 08:00N 47°18' W 002°05'0 0.0
2018-Apr-16 07:30N 47°18' W 002°05'0 0.0
2018-Apr-16 07:00N 47°18' W 002°05'0 0.0
2018-Apr-16 06:30N 47°18' W 002°05'0 0.0
2018-Apr-16 06:00N 47°18' W 002°05'0 0.0
2018-Apr-16 05:31N 47°18' W 002°05'0 0.0
2018-Apr-16 05:00N 47°18' W 002°05'0 0.0
2018-Apr-16 04:31N 47°18' W 002°05'0 0.1
2018-Apr-16 04:01N 47°18' W 002°05'0 0.2
2018-Apr-16 03:31N 47°18' W 002°05'0 0.1
2018-Apr-16 03:00N 47°18' W 002°05'2 4.6
2018-Apr-16 02:30N 47°18' W 002°09'3 5.8
2018-Apr-16 02:00N 47°16' W 002°12'0 0.0
2018-Apr-16 01:28N 47°16' W 002°12'0 0.0
2018-Apr-16 00:57N 47°16' W 002°12'0 0.0
2018-Apr-15 15:00N 47°16' W 002°12'0 0.0
2018-Apr-15 12:16N 47°16' W 002°12'2 6.6
2018-Apr-15 12:01N 47°17' W 002°10'1 1.9
2018-Apr-15 11:30N 47°18' W 002°09'0 0.2
2018-Apr-15 11:00N 47°18' W 002°09'1 2.2
2018-Apr-15 10:30N 47°17' W 002°10'1 0.3
2018-Apr-15 05:46N 47°16' W 002°12'310.6
2018-Apr-15 05:30N 47°18' W 002°09'2 3.9
2018-Apr-15 05:01N 47°18' W 002°06'0 0.0
2018-Apr-15 04:30N 47°18' W 002°06'0 0.1
2018-Apr-15 04:01N 47°18' W 002°06'0 0.2
2018-Apr-15 03:30N 47°18' W 002°06'1 2.2
2018-Apr-15 03:01N 47°18' W 002°08'3 6.9
2018-Apr-15 02:30N 47°16' W 002°12'0 0.0
2018-Apr-14 18:02N 47°16' W 002°12'0 0.0
2018-Apr-14 17:46N 47°16' W 002°12'0 0.0
2018-Apr-14 16:24N 47°16' W 002°12'4 9.0
2018-Apr-14 16:00N 47°18' W 002°08'0 0.5
2018-Apr-14 15:31N 47°18' W 002°07'2 3.4
2018-Apr-14 15:00N 47°18' W 002°05'0 0.0
2018-Apr-14 14:31N 47°18' W 002°05'0 0.4
2018-Apr-14 14:01N 47°18' W 002°05'1 2.5
2018-Apr-14 13:30N 47°18' W 002°07'4 7.6
2018-Apr-14 12:59N 47°16' W 002°12'0 0.0
2018-Apr-14 12:19N 47°16' W 002°12'0 0.0
2018-Apr-14 11:54N 47°16' W 002°12'0 0.0
2018-Apr-14 11:30N 47°16' W 002°12'3 5.9
2018-Apr-14 11:01N 47°18' W 002°09'2 3.8
2018-Apr-14 10:30N 47°18' W 002°06'0 0.7
2018-Apr-14 10:00N 47°18' W 002°05'1 2.3
2018-Apr-14 09:30N 47°18' W 002°07'4 7.7
2018-Apr-14 09:01N 47°16' W 002°12'0 0.2
2018-Apr-14 06:56N 47°16' W 002°12'0 0.0
2018-Apr-14 06:28N 47°16' W 002°12'0 0.0
2018-Apr-14 05:59N 47°16' W 002°12'0 0.0
2018-Apr-14 05:31N 47°16' W 002°12'0 0.0
2018-Apr-14 05:01N 47°16' W 002°12'0 0.0
2018-Apr-14 04:30N 47°16' W 002°12'0 0.0
2018-Apr-14 04:00N 47°16' W 002°12'0 0.0
2018-Apr-14 03:31N 47°16' W 002°12'0 0.0
2018-Apr-14 03:00N 47°16' W 002°12'0 0.0
2018-Apr-14 02:31N 47°16' W 002°12'0 0.0
2018-Apr-14 02:01N 47°16' W 002°12'0 0.0
2018-Apr-14 01:29N 47°16' W 002°12'0 0.0
2018-Apr-14 01:01N 47°16' W 002°12'0 0.0
2018-Apr-14 00:30N 47°16' W 002°12'0 0.0
2018-Apr-14 00:00N 47°16' W 002°12'0 0.0
2018-Apr-13 23:28N 47°16' W 002°12'0 0.0
2018-Apr-13 22:53N 47°16' W 002°12'0 0.0
2018-Apr-13 22:18N 47°16' W 002°12'2 7.2
2018-Apr-13 22:01N 47°17' W 002°10'2 3.2
2018-Apr-13 21:30N 47°18' W 002°08'0 0.1
2018-Apr-13 21:01N 47°18' W 002°07'2 2.1
2018-Apr-13 20:01N 47°17' W 002°10'0 0.0
2018-Apr-13 19:31N 47°17' W 002°10'0 0.0
2018-Apr-13 19:01N 47°17' W 002°10'1 1.8
2018-Apr-13 18:31N 47°18' W 002°09'0 0.4
2018-Apr-13 18:00N 47°18' W 002°09'1 1.5
2018-Apr-13 17:31N 47°17' W 002°10'0 0.0
2018-Apr-13 17:00N 47°17' W 002°10'0 0.0
2018-Apr-13 16:30N 47°17' W 002°10'1 1.5
2018-Apr-13 16:00N 47°18' W 002°09'4 7.3
2018-Apr-13 15:30N 47°18' W 002°04'2 3.0
2018-Apr-13 14:59N 47°18' W 002°06'4 8.5
2018-Apr-13 14:29N 47°16' W 002°12'0 0.0
2018-Apr-13 06:53N 47°16' W 002°12'0 0.0
2018-Apr-13 05:51N 47°16' W 002°12'0 0.0
2018-Apr-13 04:52N 47°16' W 002°12'0 0.0
2018-Apr-13 04:27N 47°16' W 002°12'0 0.0
2018-Apr-13 04:00N 47°16' W 002°12'0 0.0
2018-Apr-13 03:30N 47°16' W 002°12'0 0.0
2018-Apr-13 03:00N 47°16' W 002°12'0 0.0
2018-Apr-13 02:26N 47°16' W 002°12'0 0.0
2018-Apr-13 02:00N 47°16' W 002°12'0 0.0
2018-Apr-13 01:29N 47°16' W 002°12'0 0.0
2018-Apr-13 00:54N 47°16' W 002°12'0 0.0
2018-Apr-12 21:40N 47°16' W 002°12'0 0.0
2018-Apr-12 21:20N 47°16' W 002°12'0 0.0
2018-Apr-12 20:10N 47°16' W 002°12'0 0.0
2018-Apr-12 19:58N 47°16' W 002°12'0 0.0
2018-Apr-12 16:57N 47°16' W 002°12'3 6.0
2018-Apr-12 16:30N 47°18' W 002°09'0 0.1
2018-Apr-12 16:01N 47°18' W 002°09'1 0.8
2018-Apr-12 15:15N 47°17' W 002°10'0 0.0
2018-Apr-12 14:57N 47°17' W 002°10'1 3.3
2018-Apr-12 14:31N 47°18' W 002°08'0 0.3
2018-Apr-12 14:00N 47°18' W 002°08'4 1.3
2018-Apr-12 11:17N 47°16' W 002°12'0 0.0
2018-Apr-12 08:45N 47°16' W 002°12'2 8.6
2018-Apr-12 08:30N 47°17' W 002°10'3 5.5
2018-Apr-12 08:00N 47°18' W 002°06'0 0.1
2018-Apr-12 07:30N 47°18' W 002°06'2 4.2
2018-Apr-12 07:01N 47°18' W 002°09'0 0.0
2018-Apr-12 06:30N 47°18' W 002°09'0 0.0
2018-Apr-12 06:01N 47°18' W 002°09'0 0.0
2018-Apr-12 05:31N 47°18' W 002°09'0 0.0
2018-Apr-12 05:00N 47°18' W 002°09'0 0.0
2018-Apr-12 04:30N 47°18' W 002°09'0 0.0
2018-Apr-12 04:00N 47°18' W 002°09'0 0.0
2018-Apr-12 03:30N 47°18' W 002°09'0 0.0
2018-Apr-12 03:00N 47°18' W 002°09'0 0.0
2018-Apr-12 02:30N 47°18' W 002°09'0 0.0
2018-Apr-12 02:01N 47°18' W 002°09'0 0.0
2018-Apr-12 01:31N 47°18' W 002°09'0 0.0
2018-Apr-12 01:01N 47°18' W 002°09'0 0.0
2018-Apr-12 00:31N 47°18' W 002°09'0 0.0
2018-Apr-12 00:00N 47°18' W 002°09'0 0.0
2018-Apr-11 23:30N 47°18' W 002°09'0 0.0
2018-Apr-11 23:00N 47°18' W 002°09'0 0.0
2018-Apr-11 22:31N 47°18' W 002°09'0 0.0
2018-Apr-11 22:00N 47°18' W 002°09'0 0.0
2018-Apr-11 21:31N 47°18' W 002°09'0 0.0
2018-Apr-11 21:00N 47°18' W 002°09'0 0.0
2018-Apr-11 20:30N 47°18' W 002°09'0 0.0
2018-Apr-11 20:01N 47°18' W 002°09'0 0.0
2018-Apr-11 19:31N 47°18' W 002°09'0 0.0
2018-Apr-11 19:01N 47°18' W 002°09'0 0.0
2018-Apr-11 18:30N 47°18' W 002°09'0 0.0
2018-Apr-11 18:01N 47°18' W 002°09'0 0.0
2018-Apr-11 17:30N 47°18' W 002°09'0 0.0
2018-Apr-11 17:00N 47°18' W 002°09'0 0.0
2018-Apr-11 16:30N 47°18' W 002°09'0 0.0
2018-Apr-11 16:00N 47°18' W 002°09'0 0.0
2018-Apr-11 15:31N 47°18' W 002°09'0 0.0
2018-Apr-11 15:01N 47°18' W 002°09'0 0.0
2018-Apr-11 14:30N 47°18' W 002°09'0 0.0
2018-Apr-11 14:01N 47°18' W 002°09'0 0.0
2018-Apr-11 13:30N 47°18' W 002°09'0 0.0
2018-Apr-11 13:00N 47°18' W 002°09'0 0.0
2018-Apr-11 12:29N 47°18' W 002°09'0 0.0
2018-Apr-11 12:00N 47°18' W 002°09'0 0.0
2018-Apr-11 11:28N 47°18' W 002°09'0 0.0
2018-Apr-11 10:54N 47°18' W 002°09'0 0.0
2018-Apr-11 10:27N 47°18' W 002°09'0 0.0
2018-Apr-11 10:00N 47°18' W 002°09'0 0.0
2018-Apr-11 09:28N 47°18' W 002°09'0 0.0
2018-Apr-11 09:00N 47°18' W 002°09'0 0.0
2018-Apr-11 08:30N 47°18' W 002°09'0 0.0
2018-Apr-11 08:00N 47°18' W 002°09'0 0.0
2018-Apr-11 07:30N 47°18' W 002°09'1 1.7
2018-Apr-11 07:00N 47°18' W 002°08'2 3.2
2018-Apr-11 06:30N 47°18' W 002°05'3 5.7
2018-Apr-11 06:00N 47°18' W 002°09'2 4.7
2018-Apr-11 05:30N 47°16' W 002°12'0 0.0
2018-Apr-11 05:00N 47°16' W 002°12'0 0.0
2018-Apr-11 04:30N 47°16' W 002°12'0 0.0
2018-Apr-11 04:00N 47°16' W 002°12'0 0.0
2018-Apr-11 03:30N 47°16' W 002°12'0 0.0
2018-Apr-11 03:00N 47°16' W 002°12'0 0.0
2018-Apr-11 02:30N 47°16' W 002°12'0 0.0
2018-Apr-11 02:00N 47°16' W 002°12'0 0.0
2018-Apr-11 01:30N 47°16' W 002°12'0 0.0
2018-Apr-11 01:00N 47°16' W 002°12'0 0.0
2018-Apr-11 00:30N 47°16' W 002°12'0 0.0
2018-Apr-11 00:00N 47°16' W 002°12'0 0.0
2018-Apr-10 23:30N 47°16' W 002°12'0 0.0
2018-Apr-10 23:01N 47°16' W 002°12'0 0.0
2018-Apr-10 22:31N 47°16' W 002°12'0 0.0
2018-Apr-10 22:00N 47°16' W 002°12'0 0.0
2018-Apr-10 21:31N 47°16' W 002°12'0 0.0
2018-Apr-10 21:01N 47°16' W 002°12'0 0.0
2018-Apr-10 20:30N 47°16' W 002°12'0 0.0
2018-Apr-10 20:00N 47°16' W 002°12'0 0.0
2018-Apr-10 19:30N 47°16' W 002°12'0 0.0
2018-Apr-10 19:00N 47°16' W 002°12'0 0.0
2018-Apr-10 18:30N 47°16' W 002°12'0 0.0
2018-Apr-10 18:00N 47°16' W 002°12'0 0.0
2018-Apr-10 17:30N 47°16' W 002°12'0 0.0
2018-Apr-10 17:00N 47°16' W 002°12'0 0.0
2018-Apr-10 16:30N 47°16' W 002°12'0 0.0
2018-Apr-10 16:00N 47°16' W 002°12'0 0.0
2018-Apr-10 15:31N 47°16' W 002°12'0 0.0
2018-Apr-10 15:00N 47°16' W 002°12'0 0.0
2018-Apr-10 14:30N 47°16' W 002°12'0 0.0
2018-Apr-10 14:00N 47°16' W 002°12'0 0.0
2018-Apr-10 13:30N 47°16' W 002°12'0 0.0
2018-Apr-10 13:00N 47°16' W 002°12'0 0.0
2018-Apr-10 12:30N 47°16' W 002°12'0 0.0
2018-Apr-10 12:00N 47°16' W 002°12'0 0.0
2018-Apr-10 11:30N 47°16' W 002°12'0 0.0
2018-Apr-10 11:01N 47°16' W 002°12'0 0.0
2018-Apr-10 10:30N 47°16' W 002°12'0 0.0
2018-Apr-10 10:00N 47°16' W 002°12'0 0.0
2018-Apr-10 09:30N 47°16' W 002°12'0 0.0
2018-Apr-10 09:00N 47°16' W 002°12'0 0.0
2018-Apr-10 08:31N 47°16' W 002°12'0 0.0
2018-Apr-10 08:00N 47°16' W 002°12'0 0.0
2018-Apr-10 07:30N 47°16' W 002°12'0 0.0
2018-Apr-10 07:00N 47°16' W 002°12'0 0.0
2018-Apr-10 06:31N 47°16' W 002°12'0 0.0
2018-Apr-10 06:00N 47°16' W 002°12'0 0.0
2018-Apr-10 05:30N 47°16' W 002°12'0 0.0
2018-Apr-10 05:00N 47°16' W 002°12'0 0.0
2018-Apr-10 04:30N 47°16' W 002°12'0 0.0
2018-Apr-10 03:59N 47°16' W 002°12'0 0.0
2018-Apr-10 03:30N 47°16' W 002°12'0 0.0
2018-Apr-10 03:01N 47°16' W 002°12'  
Track history (hours):
 
Tides and Currents Weather Stations Pressure Air Temp Water Temp Dewpoint Dewpoint Depression Visibility Wind Speed Wind Dir Waves Ship Positions

Vb Saint Marc

Last reported at 2018-Apr-20 03:00 UTC. Time now 2018-Apr-20 03:01 UTC.
Position N 47°16' W 002°12'.

Length 30 m; draft 5 m.

Type: Tug. MMSI: 227005270.

Date/timePositionNaut miles runAvg speedWind from/ knotsBaromVisibWave heightAir tempDewpointWater temp
2018-Apr-20 03:00N 47°16' W 002°12'0 0.0
2018-Apr-20 02:29N 47°16' W 002°12'0 0.0
2018-Apr-20 02:00N 47°16' W 002°12'0 0.0
2018-Apr-20 01:30N 47°16' W 002°12'0 0.0
2018-Apr-20 00:59N 47°16' W 002°12'0 0.0
2018-Apr-20 00:24N 47°16' W 002°12'0 0.0
2018-Apr-20 00:00N 47°16' W 002°12'0 0.0
2018-Apr-19 23:28N 47°16' W 002°12'0 0.0
2018-Apr-19 23:00N 47°16' W 002°12'0 0.0
2018-Apr-19 22:30N 47°16' W 002°12'0 0.0
2018-Apr-19 22:00N 47°16' W 002°12'0 0.0
2018-Apr-19 21:30N 47°16' W 002°12'0 0.0
2018-Apr-19 21:00N 47°16' W 002°12'0 0.0
2018-Apr-19 20:30N 47°16' W 002°12'0 0.0
2018-Apr-19 20:00N 47°16' W 002°12'0 0.0
2018-Apr-19 19:30N 47°16' W 002°12'0 0.0
2018-Apr-19 19:00N 47°16' W 002°12'0 0.0
2018-Apr-19 18:28N 47°16' W 002°12'0 0.0
2018-Apr-19 17:42N 47°16' W 002°12'0 0.0
2018-Apr-19 17:23N 47°16' W 002°12'0 0.0
2018-Apr-19 16:57N 47°16' W 002°12'0 0.0
2018-Apr-19 16:21N 47°16' W 002°12'0 0.0
2018-Apr-19 16:00N 47°16' W 002°12'0 0.0
2018-Apr-19 15:26N 47°16' W 002°12'0 0.0
2018-Apr-19 09:44N 47°16' W 002°12'0 0.0
2018-Apr-19 08:35N 47°16' W 002°12'0 0.1
2018-Apr-19 08:30N 47°16' W 002°12'0 0.0
2018-Apr-19 08:00N 47°16' W 002°12'0 0.0
2018-Apr-19 07:30N 47°16' W 002°12'0 0.0
2018-Apr-19 07:00N 47°16' W 002°12'2 3.2
2018-Apr-19 06:30N 47°17' W 002°10'3 6.5
2018-Apr-19 06:00N 47°18' W 002°06'0 0.0
2018-Apr-19 05:30N 47°18' W 002°06'0 0.1
2018-Apr-19 05:00N 47°18' W 002°06'1 2.5
2018-Apr-19 04:30N 47°18' W 002°08'4 7.2
2018-Apr-19 04:00N 47°16' W 002°12'0 0.1
2018-Apr-19 03:28N 47°16' W 002°12'0 0.0
2018-Apr-19 03:00N 47°16' W 002°12'0 0.0
2018-Apr-19 02:30N 47°16' W 002°12'0 0.0
2018-Apr-19 01:57N 47°16' W 002°12'0 0.0
2018-Apr-19 01:30N 47°16' W 002°12'0 0.0
2018-Apr-19 01:00N 47°16' W 002°12'0 0.0
2018-Apr-19 00:29N 47°16' W 002°12'0 0.0
2018-Apr-19 00:00N 47°16' W 002°12'0 0.0
2018-Apr-18 23:30N 47°16' W 002°12'0 0.0
2018-Apr-18 23:00N 47°16' W 002°12'0 0.0
2018-Apr-18 22:30N 47°16' W 002°12'0 0.0
2018-Apr-18 21:59N 47°16' W 002°12'0 0.0
2018-Apr-18 21:30N 47°16' W 002°12'0 0.0
2018-Apr-18 21:00N 47°16' W 002°12'0 0.0
2018-Apr-18 20:30N 47°16' W 002°12'0 0.0
2018-Apr-18 20:00N 47°16' W 002°12'2 3.6
2018-Apr-18 19:30N 47°17' W 002°10'1 1.5
2018-Apr-18 19:00N 47°18' W 002°09'3 6.0
2018-Apr-18 18:30N 47°18' W 002°05'0 0.0
2018-Apr-18 18:00N 47°18' W 002°05'0 0.5
2018-Apr-18 17:30N 47°18' W 002°05'0 0.1
2018-Apr-18 16:58N 47°18' W 002°05'0 0.2
2018-Apr-18 16:22N 47°18' W 002°05'1 2.5
2018-Apr-18 15:59N 47°18' W 002°07'3 6.7
2018-Apr-18 15:30N 47°16' W 002°11'4 1.7
2018-Apr-18 13:15N 47°18' W 002°06'0 0.8
2018-Apr-18 13:00N 47°18' W 002°06'0 0.2
2018-Apr-18 12:17N 47°18' W 002°06'0 0.0
2018-Apr-18 11:59N 47°18' W 002°06'0 0.0
2018-Apr-18 11:30N 47°18' W 002°06'0 0.0
2018-Apr-18 11:00N 47°18' W 002°06'0 0.8
2018-Apr-18 10:30N 47°18' W 002°07'2 3.7
2018-Apr-18 10:00N 47°18' W 002°09'0 0.6
2018-Apr-18 09:31N 47°18' W 002°09'2 4.1
2018-Apr-18 09:00N 47°16' W 002°11'1 0.9
2018-Apr-18 08:21N 47°16' W 002°12'0 0.0
2018-Apr-18 07:58N 47°16' W 002°12'0 0.0
2018-Apr-18 07:29N 47°16' W 002°12'0 0.0
2018-Apr-18 07:00N 47°16' W 002°12'0 0.0
2018-Apr-18 06:30N 47°16' W 002°12'3 6.3
2018-Apr-18 06:01N 47°18' W 002°08'0 0.4
2018-Apr-18 05:31N 47°18' W 002°08'0 0.0
2018-Apr-18 05:00N 47°18' W 002°08'3 6.2
2018-Apr-18 04:30N 47°16' W 002°12'0 0.5
2018-Apr-18 04:00N 47°16' W 002°12'0 0.0
2018-Apr-18 03:24N 47°16' W 002°12'0 0.0
2018-Apr-18 02:46N 47°16' W 002°12'0 0.0
2018-Apr-18 02:30N 47°16' W 002°12'0 0.0
2018-Apr-18 01:59N 47°16' W 002°12'0 0.0
2018-Apr-18 01:30N 47°16' W 002°12'0 0.0
2018-Apr-18 00:55N 47°16' W 002°12'0 0.0
2018-Apr-17 23:16N 47°16' W 002°12'0 0.0
2018-Apr-17 22:58N 47°16' W 002°12'0 0.0
2018-Apr-17 22:30N 47°16' W 002°12'0 0.0
2018-Apr-17 22:00N 47°16' W 002°12'0 0.0
2018-Apr-17 21:30N 47°16' W 002°12'0 0.0
2018-Apr-17 21:00N 47°16' W 002°12'0 0.0
2018-Apr-17 20:30N 47°16' W 002°12'0 0.0
2018-Apr-17 20:00N 47°16' W 002°12'0 0.0
2018-Apr-17 19:30N 47°16' W 002°12'0 0.0
2018-Apr-17 19:00N 47°16' W 002°12'0 0.0
2018-Apr-17 18:29N 47°16' W 002°12'0 0.0
2018-Apr-17 18:00N 47°16' W 002°12'0 0.0
2018-Apr-17 16:38N 47°16' W 002°12'0 0.9
2018-Apr-17 16:28N 47°16' W 002°12'4 7.7
2018-Apr-17 15:59N 47°18' W 002°08'0 0.1
2018-Apr-17 15:30N 47°18' W 002°08'4 7.0
2018-Apr-17 14:58N 47°16' W 002°12'0 0.3
2018-Apr-17 14:29N 47°16' W 002°12'0 0.0
2018-Apr-17 07:28N 47°16' W 002°12'0 0.0
2018-Apr-17 06:57N 47°16' W 002°12'510.2
2018-Apr-17 06:30N 47°18' W 002°06'0 0.0
2018-Apr-17 06:00N 47°18' W 002°06'0 0.1
2018-Apr-17 05:31N 47°18' W 002°06'0 1.0
2018-Apr-17 05:00N 47°18' W 002°07'2 4.0
2018-Apr-17 04:30N 47°17' W 002°10'1 1.3
2018-Apr-17 04:00N 47°18' W 002°09'0 0.0
2018-Apr-17 03:30N 47°18' W 002°09'0 0.0
2018-Apr-17 03:01N 47°18' W 002°09'0 0.0
2018-Apr-17 02:30N 47°18' W 002°09'0 0.0
2018-Apr-17 02:00N 47°18' W 002°09'0 0.0
2018-Apr-17 01:31N 47°18' W 002°09'0 0.0
2018-Apr-17 01:00N 47°18' W 002°09'0 0.0
2018-Apr-17 00:30N 47°18' W 002°09'0 0.0
2018-Apr-17 00:00N 47°18' W 002°09'0 0.0
2018-Apr-16 23:31N 47°18' W 002°09'0 0.0
2018-Apr-16 23:00N 47°18' W 002°09'0 0.0
2018-Apr-16 22:30N 47°18' W 002°09'0 0.0
2018-Apr-16 22:00N 47°18' W 002°09'0 0.0
2018-Apr-16 21:31N 47°18' W 002°09'0 0.0
2018-Apr-16 21:01N 47°18' W 002°09'0 0.0
2018-Apr-16 20:31N 47°18' W 002°09'0 0.0
2018-Apr-16 20:01N 47°18' W 002°09'0 0.0
2018-Apr-16 19:31N 47°18' W 002°09'0 0.0
2018-Apr-16 19:01N 47°18' W 002°09'0 0.0
2018-Apr-16 18:30N 47°18' W 002°09'0 0.0
2018-Apr-16 18:01N 47°18' W 002°09'0 0.0
2018-Apr-16 17:30N 47°18' W 002°09'0 0.8
2018-Apr-16 17:00N 47°18' W 002°08'0 0.0
2018-Apr-16 16:30N 47°18' W 002°08'0 0.3
2018-Apr-16 16:00N 47°18' W 002°08'2 3.5
2018-Apr-16 15:31N 47°17' W 002°10'1 2.5
2018-Apr-16 15:00N 47°18' W 002°09'0 0.0
2018-Apr-16 14:30N 47°18' W 002°09'0 0.0
2018-Apr-16 14:00N 47°18' W 002°09'0 0.0
2018-Apr-16 13:30N 47°18' W 002°09'0 0.0
2018-Apr-16 13:00N 47°18' W 002°09'0 0.0
2018-Apr-16 12:30N 47°18' W 002°09'0 0.0
2018-Apr-16 12:00N 47°18' W 002°09'0 0.0
2018-Apr-16 11:30N 47°18' W 002°09'0 0.0
2018-Apr-16 11:00N 47°18' W 002°09'2 4.6
2018-Apr-16 10:30N 47°18' W 002°05'0 0.0
2018-Apr-16 10:00N 47°18' W 002°05'0 0.7
2018-Apr-16 09:30N 47°18' W 002°05'0 0.0
2018-Apr-16 09:01N 47°18' W 002°05'0 0.0
2018-Apr-16 08:30N 47°18' W 002°05'0 0.0
2018-Apr-16 08:00N 47°18' W 002°05'0 0.0
2018-Apr-16 07:30N 47°18' W 002°05'0 0.0
2018-Apr-16 07:00N 47°18' W 002°05'0 0.0
2018-Apr-16 06:30N 47°18' W 002°05'0 0.0
2018-Apr-16 06:00N 47°18' W 002°05'0 0.0
2018-Apr-16 05:31N 47°18' W 002°05'0 0.0
2018-Apr-16 05:00N 47°18' W 002°05'0 0.0
2018-Apr-16 04:31N 47°18' W 002°05'0 0.1
2018-Apr-16 04:01N 47°18' W 002°05'0 0.2
2018-Apr-16 03:31N 47°18' W 002°05'0 0.1
2018-Apr-16 03:00N 47°18' W 002°05'2 4.6
2018-Apr-16 02:30N 47°18' W 002°09'3 5.8
2018-Apr-16 02:00N 47°16' W 002°12'0 0.0
2018-Apr-16 01:28N 47°16' W 002°12'0 0.0
2018-Apr-16 00:57N 47°16' W 002°12'0 0.0
2018-Apr-15 15:00N 47°16' W 002°12'0 0.0
2018-Apr-15 12:16N 47°16' W 002°12'2 6.6
2018-Apr-15 12:01N 47°17' W 002°10'1 1.9
2018-Apr-15 11:30N 47°18' W 002°09'0 0.2
2018-Apr-15 11:00N 47°18' W 002°09'1 2.2
2018-Apr-15 10:30N 47°17' W 002°10'1 0.3
2018-Apr-15 05:46N 47°16' W 002°12'310.6
2018-Apr-15 05:30N 47°18' W 002°09'2 3.9
2018-Apr-15 05:01N 47°18' W 002°06'0 0.0
2018-Apr-15 04:30N 47°18' W 002°06'0 0.1
2018-Apr-15 04:01N 47°18' W 002°06'0 0.2
2018-Apr-15 03:30N 47°18' W 002°06'1 2.2
2018-Apr-15 03:01N 47°18' W 002°08'3 6.9
2018-Apr-15 02:30N 47°16' W 002°12'0 0.0
2018-Apr-14 18:02N 47°16' W 002°12'0 0.0
2018-Apr-14 17:46N 47°16' W 002°12'0 0.0
2018-Apr-14 16:24N 47°16' W 002°12'4 9.0
2018-Apr-14 16:00N 47°18' W 002°08'0 0.5
2018-Apr-14 15:31N 47°18' W 002°07'2 3.4
2018-Apr-14 15:00N 47°18' W 002°05'0 0.0
2018-Apr-14 14:31N 47°18' W 002°05'0 0.4
2018-Apr-14 14:01N 47°18' W 002°05'1 2.5
2018-Apr-14 13:30N 47°18' W 002°07'4 7.6
2018-Apr-14 12:59N 47°16' W 002°12'0 0.0
2018-Apr-14 12:19N 47°16' W 002°12'0 0.0
2018-Apr-14 11:54N 47°16' W 002°12'0 0.0
2018-Apr-14 11:30N 47°16' W 002°12'3 5.9
2018-Apr-14 11:01N 47°18' W 002°09'2 3.8
2018-Apr-14 10:30N 47°18' W 002°06'0 0.7
2018-Apr-14 10:00N 47°18' W 002°05'1 2.3
2018-Apr-14 09:30N 47°18' W 002°07'4 7.7
2018-Apr-14 09:01N 47°16' W 002°12'0 0.2
2018-Apr-14 06:56N 47°16' W 002°12'0 0.0
2018-Apr-14 06:28N 47°16' W 002°12'0 0.0
2018-Apr-14 05:59N 47°16' W 002°12'0 0.0
2018-Apr-14 05:31N 47°16' W 002°12'0 0.0
2018-Apr-14 05:01N 47°16' W 002°12'0 0.0
2018-Apr-14 04:30N 47°16' W 002°12'0 0.0
2018-Apr-14 04:00N 47°16' W 002°12'0 0.0
2018-Apr-14 03:31N 47°16' W 002°12'0 0.0
2018-Apr-14 03:00N 47°16' W 002°12'0 0.0
2018-Apr-14 02:31N 47°16' W 002°12'0 0.0
2018-Apr-14 02:01N 47°16' W 002°12'0 0.0
2018-Apr-14 01:29N 47°16' W 002°12'0 0.0
2018-Apr-14 01:01N 47°16' W 002°12'0 0.0
2018-Apr-14 00:30N 47°16' W 002°12'0 0.0
2018-Apr-14 00:00N 47°16' W 002°12'0 0.0
2018-Apr-13 23:28N 47°16' W 002°12'0 0.0
2018-Apr-13 22:53N 47°16' W 002°12'0 0.0
2018-Apr-13 22:18N 47°16' W 002°12'2 7.2
2018-Apr-13 22:01N 47°17' W 002°10'2 3.2
2018-Apr-13 21:30N 47°18' W 002°08'0 0.1
2018-Apr-13 21:01N 47°18' W 002°07'2 2.1
2018-Apr-13 20:01N 47°17' W 002°10'0 0.0
2018-Apr-13 19:31N 47°17' W 002°10'0 0.0
2018-Apr-13 19:01N 47°17' W 002°10'1 1.8
2018-Apr-13 18:31N 47°18' W 002°09'0 0.4
2018-Apr-13 18:00N 47°18' W 002°09'1 1.5
2018-Apr-13 17:31N 47°17' W 002°10'0 0.0
2018-Apr-13 17:00N 47°17' W 002°10'0 0.0
2018-Apr-13 16:30N 47°17' W 002°10'1 1.5
2018-Apr-13 16:00N 47°18' W 002°09'4 7.3
2018-Apr-13 15:30N 47°18' W 002°04'2 3.0
2018-Apr-13 14:59N 47°18' W 002°06'4 8.5
2018-Apr-13 14:29N 47°16' W 002°12'0 0.0
2018-Apr-13 06:53N 47°16' W 002°12'0 0.0
2018-Apr-13 05:51N 47°16' W 002°12'0 0.0
2018-Apr-13 04:52N 47°16' W 002°12'0 0.0
2018-Apr-13 04:27N 47°16' W 002°12'0 0.0
2018-Apr-13 04:00N 47°16' W 002°12'0 0.0
2018-Apr-13 03:30N 47°16' W 002°12'0 0.0
2018-Apr-13 03:00N 47°16' W 002°12'0 0.0
2018-Apr-13 02:26N 47°16' W 002°12'0 0.0
2018-Apr-13 02:00N 47°16' W 002°12'0 0.0
2018-Apr-13 01:29N 47°16' W 002°12'0 0.0
2018-Apr-13 00:54N 47°16' W 002°12'0 0.0
2018-Apr-12 21:40N 47°16' W 002°12'0 0.0
2018-Apr-12 21:20N 47°16' W 002°12'0 0.0
2018-Apr-12 20:10N 47°16' W 002°12'0 0.0
2018-Apr-12 19:58N 47°16' W 002°12'0 0.0
2018-Apr-12 16:57N 47°16' W 002°12'3 6.0
2018-Apr-12 16:30N 47°18' W 002°09'0 0.1
2018-Apr-12 16:01N 47°18' W 002°09'1 0.8
2018-Apr-12 15:15N 47°17' W 002°10'0 0.0
2018-Apr-12 14:57N 47°17' W 002°10'1 3.3
2018-Apr-12 14:31N 47°18' W 002°08'0 0.3
2018-Apr-12 14:00N 47°18' W 002°08'4 1.3
2018-Apr-12 11:17N 47°16' W 002°12'0 0.0
2018-Apr-12 08:45N 47°16' W 002°12'2 8.6
2018-Apr-12 08:30N 47°17' W 002°10'3 5.5
2018-Apr-12 08:00N 47°18' W 002°06'0 0.1
2018-Apr-12 07:30N 47°18' W 002°06'2 4.2
2018-Apr-12 07:01N 47°18' W 002°09'0 0.0
2018-Apr-12 06:30N 47°18' W 002°09'0 0.0
2018-Apr-12 06:01N 47°18' W 002°09'0 0.0
2018-Apr-12 05:31N 47°18' W 002°09'0 0.0
2018-Apr-12 05:00N 47°18' W 002°09'0 0.0
2018-Apr-12 04:30N 47°18' W 002°09'0 0.0
2018-Apr-12 04:00N 47°18' W 002°09'0 0.0
2018-Apr-12 03:30N 47°18' W 002°09'0 0.0
2018-Apr-12 03:00N 47°18' W 002°09'0 0.0
2018-Apr-12 02:30N 47°18' W 002°09'0 0.0
2018-Apr-12 02:01N 47°18' W 002°09'0 0.0
2018-Apr-12 01:31N 47°18' W 002°09'0 0.0
2018-Apr-12 01:01N 47°18' W 002°09'0 0.0
2018-Apr-12 00:31N 47°18' W 002°09'0 0.0
2018-Apr-12 00:00N 47°18' W 002°09'0 0.0
2018-Apr-11 23:30N 47°18' W 002°09'0 0.0
2018-Apr-11 23:00N 47°18' W 002°09'0 0.0
2018-Apr-11 22:31N 47°18' W 002°09'0 0.0
2018-Apr-11 22:00N 47°18' W 002°09'0 0.0
2018-Apr-11 21:31N 47°18' W 002°09'0 0.0
2018-Apr-11 21:00N 47°18' W 002°09'0 0.0
2018-Apr-11 20:30N 47°18' W 002°09'0 0.0
2018-Apr-11 20:01N 47°18' W 002°09'0 0.0
2018-Apr-11 19:31N 47°18' W 002°09'0 0.0
2018-Apr-11 19:01N 47°18' W 002°09'0 0.0
2018-Apr-11 18:30N 47°18' W 002°09'0 0.0
2018-Apr-11 18:01N 47°18' W 002°09'0 0.0
2018-Apr-11 17:30N 47°18' W 002°09'0 0.0
2018-Apr-11 17:00N 47°18' W 002°09'0 0.0
2018-Apr-11 16:30N 47°18' W 002°09'0 0.0
2018-Apr-11 16:00N 47°18' W 002°09'0 0.0
2018-Apr-11 15:31N 47°18' W 002°09'0 0.0
2018-Apr-11 15:01N 47°18' W 002°09'0 0.0
2018-Apr-11 14:30N 47°18' W 002°09'0 0.0
2018-Apr-11 14:01N 47°18' W 002°09'0 0.0
2018-Apr-11 13:30N 47°18' W 002°09'0 0.0
2018-Apr-11 13:00N 47°18' W 002°09'0 0.0
2018-Apr-11 12:29N 47°18' W 002°09'0 0.0
2018-Apr-11 12:00N 47°18' W 002°09'0 0.0
2018-Apr-11 11:28N 47°18' W 002°09'0 0.0
2018-Apr-11 10:54N 47°18' W 002°09'0 0.0
2018-Apr-11 10:27N 47°18' W 002°09'0 0.0
2018-Apr-11 10:00N 47°18' W 002°09'0 0.0
2018-Apr-11 09:28N 47°18' W 002°09'0 0.0
2018-Apr-11 09:00N 47°18' W 002°09'0 0.0
2018-Apr-11 08:30N 47°18' W 002°09'0 0.0
2018-Apr-11 08:00N 47°18' W 002°09'0 0.0
2018-Apr-11 07:30N 47°18' W 002°09'1 1.7
2018-Apr-11 07:00N 47°18' W 002°08'2 3.2
2018-Apr-11 06:30N 47°18' W 002°05'3 5.7
2018-Apr-11 06:00N 47°18' W 002°09'2 4.7
2018-Apr-11 05:30N 47°16' W 002°12'0 0.0
2018-Apr-11 05:00N 47°16' W 002°12'0 0.0
2018-Apr-11 04:30N 47°16' W 002°12'0 0.0
2018-Apr-11 04:00N 47°16' W 002°12'0 0.0
2018-Apr-11 03:30N 47°16' W 002°12'0 0.0
2018-Apr-11 03:00N 47°16' W 002°12'0 0.0
2018-Apr-11 02:30N 47°16' W 002°12'0 0.0
2018-Apr-11 02:00N 47°16' W 002°12'0 0.0
2018-Apr-11 01:30N 47°16' W 002°12'0 0.0
2018-Apr-11 01:00N 47°16' W 002°12'0 0.0
2018-Apr-11 00:30N 47°16' W 002°12'0 0.0
2018-Apr-11 00:00N 47°16' W 002°12'0 0.0
2018-Apr-10 23:30N 47°16' W 002°12'0 0.0
2018-Apr-10 23:01N 47°16' W 002°12'0 0.0
2018-Apr-10 22:31N 47°16' W 002°12'0 0.0
2018-Apr-10 22:00N 47°16' W 002°12'0 0.0
2018-Apr-10 21:31N 47°16' W 002°12'0 0.0
2018-Apr-10 21:01N 47°16' W 002°12'0 0.0
2018-Apr-10 20:30N 47°16' W 002°12'0 0.0
2018-Apr-10 20:00N 47°16' W 002°12'0 0.0
2018-Apr-10 19:30N 47°16' W 002°12'0 0.0
2018-Apr-10 19:00N 47°16' W 002°12'0 0.0
2018-Apr-10 18:30N 47°16' W 002°12'0 0.0
2018-Apr-10 18:00N 47°16' W 002°12'0 0.0
2018-Apr-10 17:30N 47°16' W 002°12'0 0.0
2018-Apr-10 17:00N 47°16' W 002°12'0 0.0
2018-Apr-10 16:30N 47°16' W 002°12'0 0.0
2018-Apr-10 16:00N 47°16' W 002°12'0 0.0
2018-Apr-10 15:31N 47°16' W 002°12'0 0.0
2018-Apr-10 15:00N 47°16' W 002°12'0 0.0
2018-Apr-10 14:30N 47°16' W 002°12'0 0.0
2018-Apr-10 14:00N 47°16' W 002°12'0 0.0
2018-Apr-10 13:30N 47°16' W 002°12'0 0.0
2018-Apr-10 13:00N 47°16' W 002°12'0 0.0
2018-Apr-10 12:30N 47°16' W 002°12'0 0.0
2018-Apr-10 12:00N 47°16' W 002°12'0 0.0
2018-Apr-10 11:30N 47°16' W 002°12'0 0.0
2018-Apr-10 11:01N 47°16' W 002°12'0 0.0
2018-Apr-10 10:30N 47°16' W 002°12'0 0.0
2018-Apr-10 10:00N 47°16' W 002°12'0 0.0
2018-Apr-10 09:30N 47°16' W 002°12'0 0.0
2018-Apr-10 09:00N 47°16' W 002°12'0 0.0
2018-Apr-10 08:31N 47°16' W 002°12'0 0.0
2018-Apr-10 08:00N 47°16' W 002°12'0 0.0
2018-Apr-10 07:30N 47°16' W 002°12'0 0.0
2018-Apr-10 07:00N 47°16' W 002°12'0 0.0
2018-Apr-10 06:31N 47°16' W 002°12'0 0.0
2018-Apr-10 06:00N 47°16' W 002°12'0 0.0
2018-Apr-10 05:30N 47°16' W 002°12'0 0.0
2018-Apr-10 05:00N 47°16' W 002°12'0 0.0
2018-Apr-10 04:30N 47°16' W 002°12'0 0.0
2018-Apr-10 03:59N 47°16' W 002°12'0 0.0
2018-Apr-10 03:30N 47°16' W 002°12'0 0.0
2018-Apr-10 03:01N 47°16' W 002°12'  

Dump ship's entire track history